createdAt,value
2019-04-25T00:01:33.959Z,6.24
2019-04-25T00:04:04.425Z,6.29
2019-04-25T00:06:37.194Z,6.21
2019-04-25T00:09:14.239Z,6.48
2019-04-25T00:11:46.633Z,6.37
2019-04-25T00:14:16.730Z,6.28
2019-04-25T00:16:47.647Z,6.19
2019-04-25T00:19:17.983Z,6.57
2019-04-25T00:22:13.208Z,6.36
2019-04-25T00:25:17.197Z,6.30
2019-04-25T00:27:45.992Z,6.23
2019-04-25T00:30:18.892Z,6.12
2019-04-25T00:32:49.351Z,6.28
2019-04-25T00:35:22.987Z,6.26
2019-04-25T00:37:53.412Z,6.42
2019-04-25T00:40:23.990Z,6.41
2019-04-25T00:42:54.334Z,6.34
2019-04-25T00:45:24.613Z,6.29
2019-04-25T00:47:54.910Z,6.26
2019-04-25T00:50:25.234Z,6.10
2019-04-25T00:52:55.656Z,5.99
2019-04-25T00:55:28.806Z,5.87
2019-04-25T00:58:04.970Z,5.80
2019-04-25T01:00:54.010Z,5.70
2019-04-25T01:03:27.872Z,5.76
2019-04-25T01:05:58.149Z,5.81
2019-04-25T01:08:29.137Z,5.69
2019-04-25T01:11:01.545Z,5.58
2019-04-25T01:13:32.191Z,5.44
2019-04-25T01:16:05.892Z,5.44
2019-04-25T01:18:37.457Z,5.42
2019-04-25T01:21:07.832Z,5.47
2019-04-25T01:23:38.173Z,5.48
2019-04-25T01:26:09.784Z,5.66
2019-04-25T01:28:40.125Z,6.14
2019-04-25T01:31:15.594Z,6.33
2019-04-25T01:33:46.697Z,6.60
2019-04-25T01:36:44.336Z,6.83
2019-04-25T01:39:41.434Z,6.73
2019-04-25T01:42:31.712Z,6.42
2019-04-25T01:45:04.075Z,6.50
2019-04-25T01:47:34.443Z,6.34
2019-04-25T01:50:05.422Z,6.55
2019-04-25T01:52:38.848Z,6.82
2019-04-25T01:55:13.791Z,6.84
2019-04-25T01:57:45.358Z,6.71
2019-04-25T02:00:21.199Z,6.94
2019-04-25T02:02:54.575Z,7.02
2019-04-25T02:05:24.824Z,6.78
2019-04-25T02:08:00.507Z,6.74
2019-04-25T02:10:30.777Z,6.58
2019-04-25T02:13:04.064Z,6.78
2019-04-25T02:15:35.061Z,6.63
2019-04-25T02:18:05.374Z,6.33
2019-04-25T02:20:36.053Z,6.10
2019-04-25T02:23:06.389Z,5.97
2019-04-25T02:25:36.783Z,5.83
2019-04-25T02:28:07.141Z,5.77
2019-04-25T02:30:37.554Z,5.55
2019-04-25T02:33:09.261Z,5.41
2019-04-25T02:35:45.736Z,5.28
2019-04-25T02:38:14.699Z,5.09
2019-04-25T02:40:46.224Z,5.02
2019-04-25T02:43:16.566Z,4.85
2019-04-25T02:46:09.114Z,4.78
2019-04-25T02:48:59.636Z,4.70
2019-04-25T02:51:34.972Z,4.64
2019-04-25T02:54:07.948Z,4.52
2019-04-25T02:56:39.066Z,4.41
2019-04-25T02:59:09.805Z,4.29
2019-04-25T03:01:40.104Z,4.37
2019-04-25T03:04:11.350Z,4.62
2019-04-25T03:06:41.951Z,4.75
2019-04-25T03:09:12.213Z,4.62
2019-04-25T03:11:45.143Z,4.55
2019-04-25T03:14:14.765Z,4.46
2019-04-25T03:16:45.177Z,4.41
2019-04-25T03:19:27.777Z,4.41
2019-04-25T03:22:03.763Z,4.42
2019-04-25T03:24:35.288Z,4.63
2019-04-25T03:27:06.187Z,4.60
2019-04-25T03:29:37.452Z,4.70
2019-04-25T03:32:11.765Z,4.71
2019-04-25T03:34:40.392Z,4.83
2019-04-25T03:37:13.744Z,4.97
2019-04-25T03:39:44.209Z,4.97
2019-04-25T03:42:14.605Z,5.08
2019-04-25T03:44:45.727Z,5.15
2019-04-25T03:47:16.006Z,5.34
2019-04-25T03:49:46.587Z,5.57
2019-04-25T03:52:16.939Z,5.75
2019-04-25T03:54:47.233Z,5.89
2019-04-25T03:57:17.734Z,5.93
2019-04-25T03:59:48.119Z,6.24
2019-04-25T04:02:19.628Z,6.15
2019-04-25T04:04:53.768Z,6.12
2019-04-25T04:07:24.220Z,6.13
2019-04-25T04:09:55.113Z,6.23
2019-04-25T04:12:25.973Z,6.26
2019-04-25T04:14:57.719Z,6.29
2019-04-25T04:17:39.865Z,6.37
2019-04-25T04:20:43.571Z,6.50
2019-04-25T04:23:25.166Z,6.65
2019-04-25T04:25:55.506Z,6.93
2019-04-25T04:28:25.906Z,7.15
2019-04-25T04:30:56.413Z,7.38
2019-04-25T04:33:32.274Z,7.55
2019-04-25T04:35:58.693Z,7.83
2019-04-25T04:38:29.323Z,7.98
2019-04-25T04:41:00.118Z,8.14
2019-04-25T04:43:30.432Z,8.38
2019-04-25T04:46:01.014Z,8.46
2019-04-25T04:48:31.341Z,8.57
2019-04-25T04:51:03.298Z,8.68
2019-04-25T04:53:35.784Z,8.80
2019-04-25T04:56:05.713Z,8.93
2019-04-25T04:58:36.127Z,9.02
2019-04-25T05:01:06.477Z,9.11
2019-04-25T05:03:44.088Z,9.25
2019-04-25T05:06:23.437Z,9.37
2019-04-25T05:08:58.745Z,9.51
2019-04-25T05:11:29.052Z,9.63
2019-04-25T05:14:04.564Z,9.82
2019-04-25T05:16:39.089Z,10.03
2019-04-25T05:19:09.748Z,10.33
2019-04-25T05:21:40.054Z,10.62
2019-04-25T05:24:10.473Z,10.80
2019-04-25T05:26:40.953Z,10.90
2019-04-25T05:29:14.005Z,11.07
2019-04-25T05:31:50.247Z,11.37
2019-04-25T05:34:20.420Z,11.46
2019-04-25T05:36:50.818Z,11.77
2019-04-25T05:39:25.053Z,12.00
2019-04-25T05:42:12.075Z,12.48
2019-04-25T05:44:44.019Z,13.00
2019-04-25T05:47:17.464Z,13.85
2019-04-25T05:49:48.924Z,14.32
2019-04-25T05:52:19.919Z,14.77
2019-04-25T05:54:50.319Z,14.70
2019-04-25T05:57:23.935Z,14.87
2019-04-25T05:59:55.048Z,14.72
2019-04-25T06:02:26.524Z,15.17
2019-04-25T06:04:59.083Z,15.55
2019-04-25T06:07:29.386Z,16.09
2019-04-25T06:10:30.794Z,16.47
2019-04-25T06:13:26.081Z,15.87
2019-04-25T06:15:57.399Z,16.55
2019-04-25T06:18:36.405Z,17.18
2019-04-25T06:21:08.170Z,18.10
2019-04-25T06:23:47.275Z,18.74
2019-04-25T06:26:26.712Z,18.39
2019-04-25T06:28:57.061Z,18.66
2019-04-25T06:31:26.552Z,19.24
2019-04-25T06:33:55.950Z,19.47
2019-04-25T06:36:27.127Z,19.52
2019-04-25T06:38:57.671Z,19.10
2019-04-25T06:41:28.179Z,18.70
2019-04-25T06:44:00.201Z,18.40
2019-04-25T06:46:49.530Z,19.05
2019-04-25T06:49:27.781Z,18.45
2019-04-25T06:52:00.506Z,18.96
2019-04-25T06:54:31.618Z,19.67
2019-04-25T06:57:04.921Z,20.16
2019-04-25T06:59:38.666Z,19.92
2019-04-25T07:02:07.643Z,20.12
2019-04-25T07:04:38.012Z,20.38
2019-04-25T07:07:12.054Z,19.79
2019-04-25T07:09:40.412Z,20.08
2019-04-25T07:12:10.726Z,20.28
2019-04-25T07:14:41.079Z,21.30
2019-04-25T07:17:14.344Z,21.42
2019-04-25T07:19:44.774Z,21.16
2019-04-25T07:22:16.571Z,21.00
2019-04-25T07:24:47.500Z,20.90
2019-04-25T07:27:36.837Z,21.64
2019-04-25T07:30:48.435Z,22.08
2019-04-25T07:33:15.608Z,22.05
2019-04-25T07:35:46.115Z,22.33
2019-04-25T07:38:16.491Z,22.85
2019-04-25T07:40:48.102Z,22.84
2019-04-25T07:43:19.591Z,23.48
2019-04-25T07:45:50.109Z,22.29
2019-04-25T07:48:22.668Z,22.02
2019-04-25T07:50:53.704Z,22.04
2019-04-25T07:53:26.980Z,21.29
2019-04-25T07:55:56.633Z,21.69
2019-04-25T07:58:49.302Z,21.52
2019-04-25T08:01:14.498Z,21.60
2019-04-25T08:03:45.183Z,21.99
2019-04-25T08:06:15.674Z,21.61
2019-04-25T08:08:46.558Z,21.02
2019-04-25T08:11:18.438Z,21.47
2019-04-25T08:13:57.155Z,21.72
2019-04-25T08:16:30.147Z,22.46
2019-04-25T08:19:03.926Z,22.88
2019-04-25T08:21:35.668Z,23.03
2019-04-25T08:24:06.917Z,23.71
2019-04-25T08:26:37.691Z,24.40
2019-04-25T08:29:08.050Z,24.40
2019-04-25T08:31:39.349Z,23.26
2019-04-25T08:34:09.730Z,23.33
2019-04-25T08:36:42.031Z,22.72
2019-04-25T08:39:14.664Z,23.64
2019-04-25T08:41:45.915Z,23.90
2019-04-25T08:44:16.256Z,24.73
2019-04-25T08:46:48.753Z,25.00
2019-04-25T08:49:25.188Z,24.33
2019-04-25T08:51:56.218Z,24.88
2019-04-25T08:54:40.086Z,25.87
2019-04-25T08:57:14.438Z,26.88
2019-04-25T09:00:06.641Z,26.75
2019-04-25T09:02:49.838Z,27.03
2019-04-25T09:05:32.634Z,26.72
2019-04-25T09:08:04.191Z,24.77
2019-04-25T09:10:38.406Z,24.90
2019-04-25T09:13:07.958Z,25.28
2019-04-25T09:15:39.909Z,25.87
2019-04-25T09:18:11.069Z,25.99
2019-04-25T09:20:46.655Z,25.66
2019-04-25T09:23:16.200Z,25.53
2019-04-25T09:25:46.599Z,25.93
2019-04-25T09:28:19.443Z,26.96
2019-04-25T09:30:50.219Z,27.85
2019-04-25T09:33:20.856Z,26.14
2019-04-25T09:35:51.188Z,26.38
2019-04-25T09:38:21.589Z,27.26
2019-04-25T09:40:54.054Z,28.11
2019-04-25T09:43:24.927Z,28.40
2019-04-25T09:46:14.264Z,28.27
2019-04-25T09:48:59.708Z,26.70
2019-04-25T09:51:37.966Z,25.98
2019-04-25T09:54:33.582Z,26.53
2019-04-25T09:57:23.375Z,25.77
2019-04-25T09:59:53.749Z,25.99
2019-04-25T10:02:26.202Z,26.52
2019-04-25T10:04:56.508Z,26.12
2019-04-25T10:07:26.838Z,26.71
2019-04-25T10:09:57.477Z,27.17
2019-04-25T10:12:29.438Z,26.32
2019-04-25T10:15:24.071Z,26.37
2019-04-25T10:17:54.450Z,26.47
2019-04-25T10:20:24.814Z,27.68
2019-04-25T10:22:56.084Z,27.72
2019-04-25T10:25:27.653Z,26.95
2019-04-25T10:27:59.744Z,27.12
2019-04-25T10:30:30.155Z,27.16
2019-04-25T10:33:04.097Z,26.38
2019-04-25T10:35:46.701Z,25.62
2019-04-25T10:38:08.839Z,25.39
2019-04-25T10:40:39.396Z,26.01
2019-04-25T10:43:10.532Z,25.34
2019-04-25T10:45:42.368Z,26.02
2019-04-25T10:48:13.706Z,26.31
2019-04-25T10:50:45.923Z,26.65
2019-04-25T10:53:17.583Z,27.05
2019-04-25T10:55:48.062Z,27.29
2019-04-25T10:58:18.535Z,27.08
2019-04-25T11:00:51.678Z,26.19
2019-04-25T11:03:35.973Z,24.58
2019-04-25T11:06:07.604Z,24.50
2019-04-25T11:08:37.986Z,25.06
2019-04-25T11:11:10.497Z,25.38
2019-04-25T11:13:41.706Z,25.91
2019-04-25T11:16:13.862Z,24.51
2019-04-25T11:18:45.453Z,24.04
2019-04-25T11:21:16.805Z,22.31
2019-04-25T11:23:48.792Z,21.16
2019-04-25T11:26:19.168Z,20.15
2019-04-25T11:28:49.618Z,19.64
2019-04-25T11:31:26.738Z,19.74
2019-04-25T11:33:57.352Z,19.67
2019-04-25T11:36:27.955Z,19.71
2019-04-25T11:39:18.830Z,19.45
2019-04-25T11:41:49.562Z,18.40
2019-04-25T11:44:20.033Z,17.76
2019-04-25T11:46:50.344Z,17.40
2019-04-25T11:49:20.631Z,17.45
2019-04-25T11:51:52.372Z,17.80
2019-04-25T11:54:24.302Z,17.59
2019-04-25T11:56:56.432Z,17.17
2019-04-25T11:59:29.328Z,16.97
2019-04-25T12:01:59.997Z,16.85
2019-04-25T12:04:30.346Z,16.86
2019-04-25T12:07:02.052Z,16.86
2019-04-25T12:09:33.623Z,16.64
2019-04-25T12:12:05.728Z,16.49
2019-04-25T12:14:39.553Z,16.48
2019-04-25T12:17:10.028Z,16.19
2019-04-25T12:19:47.880Z,16.11
2019-04-25T12:22:20.631Z,16.20
2019-04-25T12:24:55.750Z,16.06
2019-04-25T12:27:41.846Z,15.61
2019-04-25T12:30:37.455Z,15.45
2019-04-25T12:33:18.371Z,15.38
2019-04-25T12:35:40.131Z,14.99
2019-04-25T12:38:14.140Z,14.76
2019-04-25T12:40:46.868Z,14.68
2019-04-25T12:43:19.781Z,14.64
2019-04-25T12:46:00.536Z,14.65
2019-04-25T12:48:31.382Z,14.58
2019-04-25T12:51:03.216Z,14.32
2019-04-25T12:53:35.866Z,14.39
2019-04-25T12:56:11.353Z,14.45
2019-04-25T12:58:43.734Z,14.48
2019-04-25T13:01:15.336Z,14.34
2019-04-25T13:03:46.163Z,14.29
2019-04-25T13:06:16.544Z,14.34
2019-04-25T13:08:59.571Z,14.31
2019-04-25T13:11:33.314Z,14.24
2019-04-25T13:14:07.272Z,14.14
2019-04-25T13:19:51.806Z,13.72
2019-04-25T13:22:30.031Z,13.62
2019-04-25T13:25:06.767Z,13.54
2019-04-25T13:28:14.431Z,13.56
2019-04-25T13:31:19.630Z,13.33
2019-04-25T13:34:36.424Z,13.08
2019-04-25T13:37:10.816Z,13.17
2019-04-25T13:39:44.071Z,13.02
2019-04-25T13:42:19.038Z,13.10
2019-04-25T13:45:08.847Z,13.29
2019-04-25T13:47:39.218Z,13.36
2019-04-25T13:50:26.095Z,13.23
2019-04-25T13:53:04.553Z,13.36
2019-04-25T13:55:37.005Z,13.44
2019-04-25T13:58:07.402Z,13.64
2019-04-25T14:00:38.224Z,13.57
2019-04-25T14:03:08.723Z,13.54
2019-04-25T14:05:41.602Z,13.63
2019-04-25T14:08:13.246Z,13.73
2019-04-25T14:10:44.425Z,13.53
2019-04-25T14:13:14.889Z,13.66
2019-04-25T14:15:51.214Z,13.44
2019-04-25T14:18:34.294Z,13.55
2019-04-25T14:21:14.677Z,13.63
2019-04-25T14:23:45.145Z,13.38
2019-04-25T14:26:17.160Z,13.46
2019-04-25T14:28:47.548Z,13.58
2019-04-25T14:31:33.613Z,13.78
2019-04-25T14:33:53.264Z,13.87
2019-04-25T14:36:25.829Z,13.97
2019-04-25T14:38:56.121Z,13.95
2019-04-25T14:41:26.424Z,14.04
2019-04-25T14:43:57.236Z,14.32
2019-04-25T14:46:38.544Z,14.52
2019-04-25T14:49:09.254Z,14.51
2019-04-25T14:51:41.491Z,14.54
2019-04-25T14:54:30.691Z,14.68
2019-04-25T14:57:07.871Z,14.63
2019-04-25T14:59:38.234Z,14.67
2019-04-25T15:02:09.458Z,14.54
2019-04-25T15:04:41.366Z,14.67
2019-04-25T15:07:12.341Z,14.76
2019-04-25T15:09:42.960Z,14.66
2019-04-25T15:12:14.314Z,14.67
2019-04-25T15:14:44.924Z,14.80
2019-04-25T15:17:18.555Z,14.54
2019-04-25T15:19:49.521Z,14.28
2019-04-25T15:22:20.087Z,14.29
2019-04-25T15:24:50.568Z,14.45
2019-04-25T15:27:48.277Z,14.64
2019-04-25T15:30:29.295Z,14.68
2019-04-25T15:33:01.071Z,14.72
2019-04-25T15:35:40.656Z,14.49
2019-04-25T15:38:15.888Z,14.48
2019-04-25T15:40:56.177Z,14.34
2019-04-25T15:43:42.595Z,14.14
2019-04-25T15:46:27.704Z,14.07
2019-04-25T15:48:59.101Z,14.10
2019-04-25T15:51:29.932Z,13.93
2019-04-25T15:54:00.227Z,14.14
2019-04-25T15:56:30.740Z,14.09
2019-04-25T15:59:01.179Z,13.85
2019-04-25T16:01:32.414Z,13.72
2019-04-25T16:04:06.446Z,13.77
2019-04-25T16:06:37.804Z,13.67
2019-04-25T16:09:10.554Z,13.73
2019-04-25T16:11:41.526Z,13.64
2019-04-25T16:14:11.890Z,13.45
2019-04-25T16:16:42.218Z,13.31
2019-04-25T16:19:13.080Z,13.33
2019-04-25T16:21:43.523Z,13.30
2019-04-25T16:24:13.870Z,13.17
2019-04-25T16:26:44.239Z,13.11
2019-04-25T16:29:14.598Z,13.01
2019-04-25T16:31:44.930Z,12.95
2019-04-25T16:34:15.234Z,13.02
2019-04-25T16:36:45.548Z,12.99
2019-04-25T16:39:18.905Z,12.94
2019-04-25T16:41:50.016Z,12.79
2019-04-25T16:44:21.319Z,12.66
2019-04-25T16:46:51.620Z,12.72
2019-04-25T16:49:22.370Z,12.73
2019-04-25T16:51:52.774Z,12.67
2019-04-25T16:54:23.116Z,12.67
2019-04-25T16:56:58.630Z,12.64
2019-04-25T16:59:29.629Z,12.65
2019-04-25T17:02:00.175Z,12.60
2019-04-25T17:04:31.169Z,12.54
2019-04-25T17:07:01.689Z,12.52
2019-04-25T17:09:32.126Z,12.46
2019-04-25T17:12:04.427Z,12.54
2019-04-25T17:14:56.566Z,12.34
2019-04-25T17:17:43.444Z,12.27
2019-04-25T17:20:17.978Z,12.28
2019-04-25T17:22:48.266Z,12.33
2019-04-25T17:25:21.387Z,12.34
2019-04-25T17:27:51.735Z,12.23
2019-04-25T17:30:22.490Z,12.29
2019-04-25T17:33:20.895Z,12.24
2019-04-25T17:36:13.276Z,12.28
2019-04-25T17:38:55.615Z,12.27
2019-04-25T17:41:27.187Z,12.31
2019-04-25T17:44:05.418Z,12.35
2019-04-25T17:46:38.370Z,12.31
2019-04-25T17:49:08.682Z,12.30
2019-04-25T17:51:39.488Z,12.27
2019-04-25T17:54:09.972Z,12.29
2019-04-25T17:56:43.040Z,12.30
2019-04-25T17:59:13.456Z,12.32
2019-04-25T18:01:44.351Z,12.33
2019-04-25T18:04:18.769Z,12.27
2019-04-25T18:06:49.178Z,12.30
2019-04-25T18:09:20.677Z,12.25
2019-04-25T18:11:51.634Z,12.19
2019-04-25T18:14:22.292Z,12.18
2019-04-25T18:16:52.897Z,12.23
2019-04-25T18:19:42.433Z,12.17
2019-04-25T18:22:26.350Z,12.07
2019-04-25T18:25:18.145Z,12.11
2019-04-25T18:28:02.332Z,12.01
2019-04-25T18:30:35.602Z,12.07
2019-04-25T18:33:26.359Z,12.05
2019-04-25T18:36:02.223Z,12.05
2019-04-25T18:38:50.268Z,11.95
2019-04-25T18:41:46.021Z,11.89
2019-04-25T18:44:16.391Z,11.89
2019-04-25T18:46:48.645Z,11.84
2019-04-25T18:49:19.601Z,11.87
2019-04-25T18:51:57.918Z,11.86
2019-04-25T18:54:48.931Z,11.96
2019-04-25T18:57:40.438Z,11.90
2019-04-25T19:00:37.678Z,11.84
2019-04-25T19:03:45.799Z,11.89
2019-04-25T19:06:17.664Z,11.79
2019-04-25T19:08:49.153Z,11.84
2019-04-25T19:11:19.426Z,11.92
2019-04-25T19:13:51.705Z,11.89
2019-04-25T19:16:22.151Z,11.83
2019-04-25T19:18:52.445Z,11.82
2019-04-25T19:21:22.772Z,11.79
2019-04-25T19:23:53.312Z,11.72
2019-04-25T19:26:25.117Z,11.63
2019-04-25T19:28:57.840Z,11.67
2019-04-25T19:31:28.260Z,11.71
2019-04-25T19:33:58.959Z,11.72
2019-04-25T19:36:31.143Z,11.68
2019-04-25T19:39:01.499Z,11.56
2019-04-25T19:41:51.822Z,11.50
2019-04-25T19:44:26.711Z,11.60
2019-04-25T19:47:05.170Z,11.54
2019-04-25T19:49:35.524Z,11.40
2019-04-25T19:52:05.922Z,11.47
2019-04-25T19:54:36.322Z,11.43
2019-04-25T19:57:06.652Z,11.37
2019-04-25T19:59:37.031Z,11.33
2019-04-25T20:02:12.238Z,11.29
2019-04-25T20:04:51.151Z,11.26
2019-04-25T20:07:32.384Z,11.21
2019-04-25T20:10:26.652Z,11.31
2019-04-25T20:12:57.055Z,11.24
2019-04-25T20:15:27.359Z,11.22
2019-04-25T20:17:57.722Z,11.26
2019-04-25T20:20:28.023Z,11.22
2019-04-25T20:22:58.323Z,11.24
2019-04-25T20:25:29.983Z,11.13
2019-04-25T20:28:02.850Z,11.11
2019-04-25T20:30:34.578Z,11.03
2019-04-25T20:33:08.433Z,10.90
2019-04-25T20:35:39.384Z,10.96
2019-04-25T20:38:09.719Z,10.85
2019-04-25T20:40:40.577Z,10.79
2019-04-25T20:43:10.920Z,10.72
2019-04-25T20:45:42.304Z,10.73
2019-04-25T20:48:13.008Z,10.67
2019-04-25T20:50:43.281Z,10.80
2019-04-25T20:53:13.596Z,10.73
2019-04-25T20:55:43.969Z,10.78
2019-04-25T20:58:16.336Z,10.75
2019-04-25T21:00:50.410Z,10.74
2019-04-25T21:03:21.103Z,10.74
2019-04-25T21:05:53.632Z,10.76
2019-04-25T21:08:24.601Z,10.75
2019-04-25T21:10:56.574Z,10.76
2019-04-25T21:13:38.984Z,10.64
2019-04-25T21:16:27.234Z,10.63
2019-04-25T21:19:04.421Z,10.53
2019-04-25T21:21:35.007Z,10.53
2019-04-25T21:24:06.566Z,10.52
2019-04-25T21:26:36.986Z,10.37
2019-04-25T21:29:08.842Z,10.31
2019-04-25T21:31:45.156Z,10.20
2019-04-25T21:34:25.351Z,10.13
2019-04-25T21:36:47.900Z,10.07
2019-04-25T21:39:31.140Z,10.00
2019-04-25T21:42:17.821Z,10.02
2019-04-25T21:44:48.529Z,9.90
2019-04-25T21:47:19.862Z,9.91
2019-04-25T21:49:50.458Z,9.80
2019-04-25T21:52:28.207Z,9.78
2019-04-25T21:54:59.549Z,9.71
2019-04-25T21:57:30.676Z,9.66
2019-04-25T22:00:06.716Z,9.62
2019-04-25T22:02:34.709Z,9.66
2019-04-25T22:05:06.897Z,9.63
2019-04-25T22:07:38.647Z,9.54
2019-04-25T22:10:10.982Z,9.52
2019-04-25T22:12:42.667Z,9.50
2019-04-25T22:15:13.488Z,9.45
2019-04-25T22:17:43.839Z,9.40
2019-04-25T22:20:15.723Z,9.51
2019-04-25T22:22:46.321Z,9.42
2019-04-25T22:25:16.977Z,9.38
2019-04-25T22:27:47.749Z,9.37
2019-04-25T22:30:19.891Z,9.41
2019-04-25T22:33:07.725Z,9.30
2019-04-25T22:35:43.239Z,9.29
2019-04-25T22:38:13.767Z,9.22
2019-04-25T22:40:44.854Z,9.22
2019-04-25T22:43:17.410Z,9.15
2019-04-25T22:45:48.177Z,9.03
2019-04-25T22:48:26.046Z,9.03
2019-04-25T22:50:56.625Z,9.08
2019-04-25T22:53:28.941Z,9.04
2019-04-25T22:55:59.324Z,9.00
2019-04-25T22:58:29.733Z,9.05
2019-04-25T23:01:00.720Z,9.04
2019-04-25T23:03:37.725Z,9.13
2019-04-25T23:06:08.452Z,9.06
2019-04-25T23:08:41.491Z,9.06
2019-04-25T23:11:12.457Z,9.04
2019-04-25T23:13:43.013Z,8.94
2019-04-25T23:16:13.617Z,8.88
2019-04-25T23:18:43.943Z,8.81
2019-04-25T23:21:14.533Z,8.78
2019-04-25T23:23:45.833Z,8.87
2019-04-25T23:26:44.165Z,8.90
2019-04-25T23:29:16.081Z,8.99
2019-04-25T23:31:46.497Z,9.08
2019-04-25T23:34:18.209Z,9.18
2019-04-25T23:36:48.479Z,9.17
2019-04-25T23:39:19.251Z,9.23
2019-04-25T23:41:49.607Z,9.17
2019-04-25T23:44:21.097Z,9.31
2019-04-25T23:46:51.747Z,9.37
2019-04-25T23:49:23.664Z,9.39
2019-04-25T23:51:54.045Z,9.56
2019-04-25T23:54:24.622Z,9.54
2019-04-25T23:56:54.954Z,9.54
2019-04-25T23:59:25.244Z,9.62
